createdAt,value
2023-01-01T00:00:57.262Z,244
2023-01-01T00:02:59.122Z,244
2023-01-01T00:07:02.002Z,244
2023-01-01T00:11:04.627Z,244
2023-01-01T00:13:05.765Z,244
2023-01-01T00:15:06.714Z,244
2023-01-01T00:17:07.992Z,244
2023-01-01T00:19:09.193Z,244
2023-01-01T00:23:11.218Z,244
2023-01-01T00:25:12.859Z,360
2023-01-01T00:27:13.987Z,145
2023-01-01T00:29:15.169Z,155
2023-01-01T00:33:17.784Z,155
2023-01-01T00:35:18.696Z,155
2023-01-01T00:37:19.774Z,155
2023-01-01T00:39:20.825Z,155
2023-01-01T00:41:22.056Z,155
2023-01-01T00:43:23.549Z,155
2023-01-01T00:45:24.493Z,155
2023-01-01T00:49:27.114Z,155
2023-01-01T00:51:33.018Z,199
2023-01-01T00:53:30.274Z,199
2023-01-01T00:55:31.281Z,199
2023-01-01T00:57:32.437Z,199
2023-01-01T00:59:33.540Z,199
2023-01-01T01:01:34.636Z,199
2023-01-01T01:05:37.283Z,199
2023-01-01T01:07:38.753Z,76
2023-01-01T01:09:40.509Z,76
2023-01-01T01:11:41.553Z,76
2023-01-01T01:15:43.609Z,81
2023-01-01T01:17:44.637Z,81
2023-01-01T01:21:47.836Z,81
2023-01-01T01:24:33.319Z,86
2023-01-01T01:26:34.766Z,86
2023-01-01T01:30:37.131Z,198
2023-01-01T01:32:38.797Z,199
2023-01-01T01:36:41.219Z,199
2023-01-01T01:38:42.768Z,199
2023-01-01T01:40:43.831Z,173
2023-01-01T01:42:44.702Z,173
2023-01-01T01:46:47.175Z,172
2023-01-01T01:48:48.992Z,172
2023-01-01T01:50:50.071Z,172
2023-01-01T01:52:51.389Z,172
2023-01-01T01:54:52.987Z,172
2023-01-01T01:58:56.111Z,155
2023-01-01T02:00:57.316Z,155
2023-01-01T02:02:59.147Z,164
2023-01-01T02:05:00.213Z,165
2023-01-01T02:09:02.522Z,165
2023-01-01T02:11:03.981Z,165
2023-01-01T02:13:05.374Z,165
2023-01-01T02:15:07.254Z,165
2023-01-01T02:17:08.490Z,165
2023-01-01T02:19:09.848Z,165
2023-01-01T02:21:11.485Z,165
2023-01-01T02:23:13.109Z,165
2023-01-01T02:25:14.409Z,165
2023-01-01T02:27:16.147Z,165
2023-01-01T02:29:17.898Z,165
2023-01-01T02:31:23.104Z,165
2023-01-01T02:33:20.705Z,165
2023-01-01T02:35:21.863Z,165
2023-01-01T02:37:23.555Z,165
2023-01-01T02:41:26.294Z,165
2023-01-01T02:43:27.231Z,165
2023-01-01T02:45:28.964Z,165
2023-01-01T02:47:30.290Z,165
2023-01-01T02:51:32.866Z,165
2023-01-01T02:53:34.037Z,165
2023-01-01T02:55:34.976Z,165
2023-01-01T02:57:36.187Z,165
2023-01-01T03:01:39.200Z,165
2023-01-01T03:03:40.306Z,165
2023-01-01T03:05:41.655Z,165
2023-01-01T03:07:42.931Z,165
2023-01-01T03:11:45.738Z,165
2023-01-01T03:13:46.971Z,165
2023-01-01T03:17:49.002Z,165
2023-01-01T03:19:50.625Z,165
2023-01-01T03:21:52.281Z,165
2023-01-01T03:23:53.157Z,165
2023-01-01T03:27:56.095Z,165
2023-01-01T03:29:57.560Z,165
2023-01-01T03:31:59.161Z,165
2023-01-01T03:34:00.717Z,232
2023-01-01T03:36:01.639Z,232
2023-01-01T03:40:03.742Z,231
2023-01-01T03:42:04.962Z,190
2023-01-01T03:44:06.640Z,190
2023-01-01T03:46:07.630Z,145
2023-01-01T03:50:10.197Z,146
2023-01-01T03:52:11.943Z,147
2023-01-01T03:54:13.515Z,146
2023-01-01T03:56:15.293Z,171
2023-01-01T03:58:16.268Z,171
2023-01-01T04:00:18.070Z,172
2023-01-01T04:02:19.225Z,208
2023-01-01T04:04:21.111Z,208
2023-01-01T04:06:22.851Z,208
2023-01-01T04:08:24.537Z,222
2023-01-01T04:10:25.780Z,222
2023-01-01T04:12:26.727Z,222
2023-01-01T04:14:27.701Z,222
2023-01-01T04:16:29.638Z,222
2023-01-01T04:18:30.545Z,222
2023-01-01T04:22:33.321Z,257
2023-01-01T04:24:34.365Z,257
2023-01-01T04:28:37.215Z,257
2023-01-01T04:32:40.412Z,257
2023-01-01T04:34:41.504Z,257
2023-01-01T04:36:42.751Z,257
2023-01-01T04:38:43.859Z,257
2023-01-01T04:42:47.011Z,257
2023-01-01T04:44:48.565Z,257
2023-01-01T04:46:52.213Z,257
2023-01-01T04:48:52.102Z,257
2023-01-01T04:52:55.856Z,257
2023-01-01T04:54:57.477Z,257
2023-01-01T04:56:59.031Z,257
2023-01-01T04:59:00.181Z,257
2023-01-01T05:01:01.836Z,257
2023-01-01T05:05:04.636Z,257
2023-01-01T05:07:06.431Z,257
2023-01-01T05:09:07.555Z,257
2023-01-01T05:11:08.517Z,257
2023-01-01T05:15:10.983Z,257
2023-01-01T05:17:12.505Z,257
2023-01-01T05:21:15.039Z,257
2023-01-01T05:25:17.773Z,257
2023-01-01T05:27:18.773Z,257
2023-01-01T05:29:19.855Z,257
2023-01-01T05:31:21.772Z,257
2023-01-01T05:35:26.640Z,257
2023-01-01T05:37:26.146Z,257
2023-01-01T05:39:27.743Z,257
2023-01-01T05:41:29.175Z,257
2023-01-01T05:43:30.735Z,257
2023-01-01T05:45:31.873Z,257
2023-01-01T05:47:33.453Z,257
2023-01-01T05:53:38.378Z,257
2023-01-01T05:57:40.471Z,257
2023-01-01T05:59:42.190Z,107
2023-01-01T06:03:45.310Z,109
2023-01-01T06:07:48.941Z,108
2023-01-01T06:09:49.984Z,108
2023-01-01T06:13:52.223Z,108
2023-01-01T06:17:55.105Z,108
2023-01-01T06:19:57.016Z,108
2023-01-01T06:23:59.932Z,108
2023-01-01T06:26:01.330Z,108
2023-01-01T06:28:02.802Z,108
2023-01-01T06:30:04.193Z,108
2023-01-01T06:36:08.168Z,114
2023-01-01T06:38:09.558Z,114
2023-01-01T06:40:10.914Z,114
2023-01-01T06:42:11.934Z,114
2023-01-01T06:46:15.016Z,185
2023-01-01T06:48:16.513Z,185
2023-01-01T06:50:18.147Z,185
2023-01-01T06:52:19.334Z,176
2023-01-01T06:56:22.212Z,176
2023-01-01T06:58:23.266Z,176
2023-01-01T07:00:25.025Z,176
2023-01-01T07:02:26.191Z,176
2023-01-01T07:04:27.086Z,176
2023-01-01T07:06:28.138Z,176
2023-01-01T07:08:29.209Z,176
2023-01-01T07:10:30.869Z,176
2023-01-01T07:12:32.800Z,176
2023-01-01T07:14:34.147Z,176
2023-01-01T07:16:35.227Z,176
2023-01-01T07:18:36.508Z,176
2023-01-01T07:20:37.801Z,176
2023-01-01T07:22:39.191Z,176
2023-01-01T07:24:40.956Z,176
2023-01-01T07:28:43.916Z,176
2023-01-01T07:30:44.929Z,176
2023-01-01T07:32:46.325Z,176
2023-01-01T07:34:50.591Z,176
2023-01-01T07:36:49.254Z,176
2023-01-01T07:38:50.539Z,176
2023-01-01T07:40:52.199Z,176
2023-01-01T07:42:53.288Z,176
2023-01-01T07:44:54.599Z,176
2023-01-01T07:46:55.771Z,176
2023-01-01T07:48:57.339Z,176
2023-01-01T07:50:58.544Z,176
2023-01-01T07:52:59.702Z,176
2023-01-01T07:55:00.987Z,176
2023-01-01T07:57:02.174Z,176
2023-01-01T08:01:05.570Z,176
2023-01-01T08:03:06.669Z,176
2023-01-01T08:05:07.601Z,176
2023-01-01T08:07:09.053Z,176
2023-01-01T08:11:55.610Z,176
2023-01-01T08:15:58.048Z,176
2023-01-01T08:17:59.152Z,176
2023-01-01T08:22:02.588Z,176
2023-01-01T08:26:04.984Z,176
2023-01-01T08:28:06.671Z,176
2023-01-01T08:32:09.592Z,176
2023-01-01T08:34:11.446Z,176
2023-01-01T08:36:13.081Z,176
2023-01-01T08:38:14.650Z,176
2023-01-01T08:42:17.068Z,176
2023-01-01T08:44:18.863Z,176
2023-01-01T08:48:24.351Z,176
2023-01-01T08:50:23.166Z,176
2023-01-01T08:54:26.054Z,176
2023-01-01T08:58:29.573Z,176
2023-01-01T09:00:30.896Z,176
2023-01-01T09:04:34.265Z,176
2023-01-01T09:08:36.725Z,176
2023-01-01T09:10:37.699Z,176
2023-01-01T09:14:40.609Z,176
2023-01-01T09:16:44.145Z,176
2023-01-01T09:18:43.253Z,176
2023-01-01T09:20:44.510Z,176
2023-01-01T09:26:47.549Z,176
2023-01-01T09:28:49.302Z,176
2023-01-01T09:30:51.129Z,176
2023-01-01T09:32:52.406Z,176
2023-01-01T09:36:54.862Z,176
2023-01-01T09:38:56.526Z,176
2023-01-01T09:40:57.998Z,176
2023-01-01T09:42:59.599Z,176
2023-01-01T09:47:02.428Z,176
2023-01-01T09:49:04.204Z,176
2023-01-01T09:51:05.187Z,176
2023-01-01T09:53:06.689Z,176
2023-01-01T09:55:07.899Z,176
2023-01-01T09:57:12.388Z,176
2023-01-01T09:59:11.022Z,176
2023-01-01T10:01:12.658Z,176
2023-01-01T10:03:14.515Z,176
2023-01-01T10:05:15.783Z,176
2023-01-01T10:07:17.445Z,176
2023-01-01T10:09:18.586Z,176
2023-01-01T10:11:20.572Z,176
2023-01-01T10:13:21.744Z,176
2023-01-01T10:15:23.167Z,176
2023-01-01T10:19:26.233Z,176
2023-01-01T10:21:27.488Z,176
2023-01-01T10:23:28.551Z,176
2023-01-01T10:25:29.544Z,176
2023-01-01T10:29:33.455Z,165
2023-01-01T10:31:34.950Z,166
2023-01-01T10:33:36.419Z,182
2023-01-01T10:35:37.786Z,182
2023-01-01T10:39:40.793Z,182
2023-01-01T10:41:41.859Z,182
2023-01-01T10:43:43.252Z,182
2023-01-01T10:45:44.483Z,182
2023-01-01T10:49:46.915Z,182
2023-01-01T10:51:47.841Z,182
2023-01-01T10:53:50.120Z,182
2023-01-01T10:55:51.891Z,182
2023-01-01T10:57:53.609Z,182
2023-01-01T11:01:57.048Z,182
2023-01-01T11:03:58.249Z,182
2023-01-01T11:05:59.926Z,315
2023-01-01T11:08:01.374Z,315
2023-01-01T11:12:09.677Z,315
2023-01-01T11:14:05.703Z,315
2023-01-01T11:18:08.252Z,283
2023-01-01T11:22:10.333Z,198
2023-01-01T11:24:11.948Z,198
2023-01-01T11:28:14.977Z,198
2023-01-01T11:32:17.847Z,225
2023-01-01T11:34:18.790Z,218
2023-01-01T11:38:25.963Z,236
2023-01-01T11:40:23.108Z,176
2023-01-01T11:42:24.920Z,278
2023-01-01T11:44:26.194Z,251
2023-01-01T11:50:30.992Z,202
2023-01-01T11:52:32.522Z,208
2023-01-01T11:54:34.070Z,208
2023-01-01T11:56:35.020Z,205
2023-01-01T12:00:36.962Z,205
2023-01-01T12:02:38.597Z,283
2023-01-01T12:04:39.914Z,240
2023-01-01T12:06:41.262Z,206
2023-01-01T12:10:44.312Z,167
2023-01-01T12:12:45.500Z,197
2023-01-01T12:14:46.565Z,229
2023-01-01T12:16:47.920Z,235
2023-01-01T12:18:48.779Z,175
2023-01-01T12:20:49.767Z,222
2023-01-01T12:22:50.696Z,222
2023-01-01T12:24:52.048Z,222
2023-01-01T12:26:53.702Z,222
2023-01-01T12:28:55.198Z,235
2023-01-01T12:30:57.111Z,235
2023-01-01T12:33:02.163Z,173
2023-01-01T12:34:59.048Z,189
2023-01-01T12:37:00.873Z,200
2023-01-01T12:39:01.691Z,200
2023-01-01T12:43:03.967Z,196
2023-01-01T12:45:05.588Z,215
2023-01-01T12:47:06.951Z,208
2023-01-01T12:49:08.279Z,232
2023-01-01T12:53:12.213Z,174
2023-01-01T12:55:13.378Z,195
2023-01-01T12:57:14.694Z,195
2023-01-01T12:59:16.063Z,191
2023-01-01T13:03:18.210Z,192
2023-01-01T13:05:18.933Z,188
2023-01-01T13:07:20.209Z,188
2023-01-01T13:09:21.436Z,284
2023-01-01T13:13:24.122Z,214
2023-01-01T13:15:25.662Z,214
2023-01-01T13:19:28.720Z,230
2023-01-01T13:21:30.148Z,250
2023-01-01T13:23:31.254Z,213
2023-01-01T13:25:32.273Z,215
2023-01-01T13:31:37.693Z,170
2023-01-01T13:33:38.489Z,170
2023-01-01T13:35:39.359Z,189
2023-01-01T13:37:40.284Z,239
2023-01-01T13:41:42.961Z,218
2023-01-01T13:43:44.064Z,218
2023-01-01T13:46:10.838Z,218
2023-01-01T13:47:46.125Z,220
2023-01-01T13:52:05.125Z,158
2023-01-01T13:53:50.248Z,158
2023-01-01T13:55:51.503Z,158
2023-01-01T13:57:53.130Z,158
2023-01-01T13:59:54.376Z,159
2023-01-01T14:01:56.012Z,179
2023-01-01T14:03:57.062Z,179
2023-01-01T14:05:58.106Z,179
2023-01-01T14:07:59.809Z,179
2023-01-01T14:10:00.790Z,179
2023-01-01T14:12:01.986Z,179
2023-01-01T14:14:03.852Z,178
2023-01-01T14:16:04.902Z,179
2023-01-01T14:18:06.103Z,179
2023-01-01T14:20:07.309Z,179
2023-01-01T14:24:09.909Z,178
2023-01-01T14:26:11.229Z,178
2023-01-01T14:28:12.202Z,179
2023-01-01T14:30:13.289Z,179
2023-01-01T14:34:15.822Z,166
2023-01-01T14:36:17.228Z,163
2023-01-01T14:40:20.238Z,163
2023-01-01T14:44:22.490Z,163
2023-01-01T14:46:23.990Z,165
2023-01-01T14:50:27.246Z,164
2023-01-01T14:54:30.487Z,116
2023-01-01T14:55:14.261Z,169
2023-01-01T14:57:15.520Z,169
2023-01-01T14:59:17.170Z,169
2023-01-01T15:01:18.226Z,170
2023-01-01T15:05:20.441Z,170
2023-01-01T15:07:21.980Z,170
2023-01-01T15:09:23.447Z,170
2023-01-01T15:11:28.951Z,170
2023-01-01T15:13:26.301Z,165
2023-01-01T15:17:29.272Z,167
2023-01-01T15:19:30.633Z,167
2023-01-01T15:21:32.363Z,167
2023-01-01T15:23:33.334Z,167
2023-01-01T15:27:35.681Z,169
2023-01-01T15:29:37.335Z,173
2023-01-01T15:31:38.828Z,173
2023-01-01T15:33:40.464Z,175
2023-01-01T15:35:41.489Z,136
2023-01-01T15:37:42.576Z,184
2023-01-01T15:39:44.444Z,164
2023-01-01T15:41:46.303Z,157
2023-01-01T15:43:47.183Z,170
2023-01-01T15:45:48.511Z,170
2023-01-01T15:47:49.978Z,170
2023-01-01T15:49:51.174Z,170
2023-01-01T15:51:52.552Z,170
2023-01-01T15:53:54.318Z,170
2023-01-01T15:55:55.337Z,170
2023-01-01T15:59:57.639Z,360
2023-01-01T16:01:59.220Z,157
2023-01-01T16:06:01.360Z,157
2023-01-01T16:10:04.254Z,157
2023-01-01T16:12:06.029Z,157
2023-01-01T16:14:07.664Z,157
2023-01-01T16:16:08.688Z,157
2023-01-01T16:20:11.979Z,157
2023-01-01T16:22:13.130Z,157
2023-01-01T16:24:14.676Z,60
2023-01-01T16:26:15.989Z,60
2023-01-01T16:30:18.544Z,360
2023-01-01T16:32:19.733Z,360
2023-01-01T16:34:21.182Z,360
2023-01-01T16:36:22.438Z,360
2023-01-01T16:38:23.787Z,360
2023-01-01T16:42:27.007Z,98
2023-01-01T16:44:28.772Z,104
2023-01-01T16:46:30.025Z,104
2023-01-01T16:48:31.682Z,104
2023-01-01T16:52:38.356Z,105
2023-01-01T16:54:36.852Z,105
2023-01-01T16:58:49.337Z,105
2023-01-01T17:02:41.743Z,106
2023-01-01T17:04:42.833Z,106
2023-01-01T17:08:45.222Z,106
2023-01-01T17:12:48.560Z,106
2023-01-01T17:14:49.989Z,106
2023-01-01T17:19:15.384Z,106
2023-01-01T17:20:55.027Z,106
2023-01-01T17:22:56.278Z,106
2023-01-01T17:24:57.972Z,106
2023-01-01T17:29:01.254Z,106
2023-01-01T17:31:02.168Z,107
2023-01-01T17:33:03.104Z,107
2023-01-01T17:35:04.935Z,107
2023-01-01T17:37:06.147Z,107
2023-01-01T17:41:08.442Z,107
2023-01-01T17:45:11.434Z,107
2023-01-01T17:47:12.867Z,107
2023-01-01T17:51:15.565Z,107
2023-01-01T17:53:16.585Z,107
2023-01-01T17:55:18.242Z,107
2023-01-01T17:57:19.315Z,107
2023-01-01T17:59:21.210Z,107
2023-01-01T18:01:23.203Z,107
2023-01-01T18:03:24.725Z,360
2023-01-01T18:05:26.373Z,360
2023-01-01T18:07:27.495Z,360
2023-01-01T18:11:29.946Z,360
2023-01-01T18:13:31.227Z,360
2023-01-01T18:15:32.345Z,360
2023-01-01T18:17:34.181Z,360
2023-01-01T18:19:35.576Z,360
2023-01-01T18:23:39.902Z,82
2023-01-01T18:25:40.043Z,122
2023-01-01T18:27:41.052Z,34
2023-01-01T18:29:42.935Z,34
2023-01-01T18:33:45.559Z,34
2023-01-01T18:35:46.629Z,34
2023-01-01T18:37:48.095Z,34
2023-01-01T18:39:49.373Z,34
2023-01-01T18:41:50.761Z,34
2023-01-01T18:43:52.222Z,34
2023-01-01T18:45:53.333Z,34
2023-01-01T18:47:55.009Z,34
2023-01-01T18:49:55.988Z,34
2023-01-01T18:53:58.682Z,34
2023-01-01T18:56:00.358Z,34
2023-01-01T18:58:01.351Z,34
2023-01-01T19:00:02.383Z,34
2023-01-01T19:02:04.060Z,34
2023-01-01T19:06:06.976Z,34
2023-01-01T19:08:08.145Z,34
2023-01-01T19:10:09.299Z,34
2023-01-01T19:12:11.202Z,34
2023-01-01T19:16:13.631Z,34
2023-01-01T19:18:15.478Z,34
2023-01-01T19:22:18.132Z,34
2023-01-01T19:26:20.793Z,34
2023-01-01T19:28:22.467Z,34
2023-01-01T19:32:25.484Z,34
2023-01-01T19:36:28.164Z,34
2023-01-01T19:38:29.374Z,34
2023-01-01T19:42:32.721Z,34
2023-01-01T19:44:33.927Z,34
2023-01-01T19:46:34.967Z,34
2023-01-01T19:48:35.936Z,34
2023-01-01T19:54:40.477Z,34
2023-01-01T19:56:41.440Z,38
2023-01-01T19:58:42.711Z,38
2023-01-01T20:00:44.557Z,38
2023-01-01T20:04:47.740Z,121
2023-01-01T20:06:48.571Z,122
2023-01-01T20:08:50.095Z,139
2023-01-01T20:10:51.381Z,175
2023-01-01T20:14:54.600Z,111
2023-01-01T20:16:56.372Z,158
2023-01-01T20:18:58.153Z,245
2023-01-01T20:20:59.328Z,105
2023-01-01T20:23:00.768Z,105
2023-01-01T20:25:01.722Z,105
2023-01-01T20:27:03.561Z,105
2023-01-01T20:29:05.068Z,105
2023-01-01T20:31:06.040Z,114
2023-01-01T20:33:07.840Z,114
2023-01-01T20:35:09.727Z,114
2023-01-01T20:37:11.330Z,114
2023-01-01T20:39:12.991Z,114
2023-01-01T20:41:14.165Z,114
2023-01-01T20:43:15.663Z,114
2023-01-01T20:47:18.287Z,114
2023-01-01T20:49:19.629Z,114
2023-01-01T20:53:22.015Z,114
2023-01-01T20:57:25.417Z,114
2023-01-01T20:59:35.171Z,114
2023-01-01T21:01:28.224Z,114
2023-01-01T21:03:30.042Z,114
2023-01-01T21:05:31.107Z,114
2023-01-01T21:07:32.571Z,114
2023-01-01T21:09:33.820Z,114
2023-01-01T21:11:35.020Z,114
2023-01-01T21:13:35.994Z,114
2023-01-01T21:17:38.548Z,114
2023-01-01T21:19:40.035Z,114
2023-01-01T21:23:43.052Z,114
2023-01-01T21:25:51.909Z,114
2023-01-01T21:27:45.567Z,114
2023-01-01T21:29:47.110Z,114
2023-01-01T21:33:50.095Z,114
2023-01-01T21:35:51.499Z,114
2023-01-01T21:39:54.114Z,114
2023-01-01T21:40:37.924Z,114
2023-01-01T21:42:39.368Z,114
2023-01-01T21:44:41.232Z,114
2023-01-01T21:46:42.531Z,114
2023-01-01T21:50:45.832Z,114
2023-01-01T21:52:47.671Z,114
2023-01-01T21:54:48.142Z,114
2023-01-01T21:56:49.537Z,114
2023-01-01T22:00:52.498Z,114
2023-01-01T22:02:54.393Z,114
2023-01-01T22:04:56.019Z,114
2023-01-01T22:06:56.985Z,114
2023-01-01T22:08:58.156Z,114
2023-01-01T22:10:59.673Z,114
2023-01-01T22:13:01.282Z,114
2023-01-01T22:15:02.967Z,114
2023-01-01T22:17:04.631Z,114
2023-01-01T22:19:05.921Z,114
2023-01-01T22:23:09.065Z,114
2023-01-01T22:25:10.749Z,114
2023-01-01T22:27:12.133Z,114
2023-01-01T22:29:13.869Z,114
2023-01-01T22:33:16.596Z,114
2023-01-01T22:35:17.589Z,114
2023-01-01T22:37:18.863Z,114
2023-01-01T22:39:20.056Z,114
2023-01-01T22:41:21.241Z,114
2023-01-01T22:43:22.180Z,114
2023-01-01T22:45:23.357Z,114
2023-01-01T22:47:24.840Z,114
2023-01-01T22:49:26.263Z,114
2023-01-01T22:51:27.240Z,114
2023-01-01T22:53:28.427Z,114
2023-01-01T22:55:29.495Z,114
2023-01-01T22:57:30.907Z,114
2023-01-01T22:59:32.397Z,114
2023-01-01T23:01:34.031Z,114
2023-01-01T23:05:37.010Z,114
2023-01-01T23:07:41.630Z,114
2023-01-01T23:09:39.883Z,114
2023-01-01T23:11:41.338Z,114
2023-01-01T23:15:44.553Z,114
2023-01-01T23:17:46.055Z,114
2023-01-01T23:19:47.728Z,114
2023-01-01T23:21:48.755Z,114
2023-01-01T23:25:51.424Z,113
2023-01-01T23:27:53.135Z,113
2023-01-01T23:29:54.217Z,114
2023-01-01T23:31:56.021Z,113
2023-01-01T23:38:00.695Z,113
2023-01-01T23:40:01.719Z,114
2023-01-01T23:42:02.661Z,113
2023-01-01T23:44:04.024Z,114
2023-01-01T23:46:05.289Z,114
2023-01-01T23:48:06.852Z,113
2023-01-01T23:52:10.281Z,114
2023-01-01T23:54:11.768Z,114
2023-01-01T23:58:14.398Z,114
